sensor_id;sensor_type;location;lat;lon;timestamp;temperature;humidity
32660;DHT22;19064;47.912;12.308;2023-02-28T00:01:23;-2.90;99.90
32660;DHT22;19064;47.912;12.308;2023-02-28T00:03:53;-2.90;99.90
32660;DHT22;19064;47.912;12.308;2023-02-28T00:06:22;-2.90;99.90
32660;DHT22;19064;47.912;12.308;2023-02-28T00:08:50;-2.90;99.90
32660;DHT22;19064;47.912;12.308;2023-02-28T00:11:18;-3.00;99.90
32660;DHT22;19064;47.912;12.308;2023-02-28T00:13:46;-3.00;99.90
32660;DHT22;19064;47.912;12.308;2023-02-28T00:16:17;-2.90;99.90
32660;DHT22;19064;47.912;12.308;2023-02-28T00:18:47;-3.00;99.90
32660;DHT22;19064;47.912;12.308;2023-02-28T00:21:15;-2.90;99.90
32660;DHT22;19064;47.912;12.308;2023-02-28T00:23:43;-3.00;99.90
32660;DHT22;19064;47.912;12.308;2023-02-28T00:26:13;-2.90;99.90
32660;DHT22;19064;47.912;12.308;2023-02-28T00:28:40;-3.00;99.90
32660;DHT22;19064;47.912;12.308;2023-02-28T00:31:07;-3.00;99.90
32660;DHT22;19064;47.912;12.308;2023-02-28T00:33:36;-3.10;99.90
32660;DHT22;19064;47.912;12.308;2023-02-28T00:36:04;-3.10;99.90
32660;DHT22;19064;47.912;12.308;2023-02-28T00:38:33;-3.00;99.90
32660;DHT22;19064;47.912;12.308;2023-02-28T00:41:01;-3.00;99.90
32660;DHT22;19064;47.912;12.308;2023-02-28T00:43:31;-3.00;99.90
32660;DHT22;19064;47.912;12.308;2023-02-28T00:46:01;-3.00;99.90
32660;DHT22;19064;47.912;12.308;2023-02-28T00:48:29;-3.00;99.90
32660;DHT22;19064;47.912;12.308;2023-02-28T00:50:59;-3.10;99.90
32660;DHT22;19064;47.912;12.308;2023-02-28T00:53:26;-3.20;99.90
32660;DHT22;19064;47.912;12.308;2023-02-28T00:55:54;-3.20;99.90
32660;DHT22;19064;47.912;12.308;2023-02-28T00:58:22;-3.20;99.90
32660;DHT22;19064;47.912;12.308;2023-02-28T01:00:50;-3.30;99.90
32660;DHT22;19064;47.912;12.308;2023-02-28T01:03:19;-3.30;99.90
32660;DHT22;19064;47.912;12.308;2023-02-28T01:05:48;-3.30;99.90
32660;DHT22;19064;47.912;12.308;2023-02-28T01:08:17;-3.30;99.90
32660;DHT22;19064;47.912;12.308;2023-02-28T01:10:45;-3.30;99.90
32660;DHT22;19064;47.912;12.308;2023-02-28T01:13:13;-3.30;99.90
32660;DHT22;19064;47.912;12.308;2023-02-28T01:15:42;-3.20;99.90
32660;DHT22;19064;47.912;12.308;2023-02-28T01:18:11;-3.20;99.90
32660;DHT22;19064;47.912;12.308;2023-02-28T01:20:41;-3.30;99.90
32660;DHT22;19064;47.912;12.308;2023-02-28T01:23:09;-3.20;99.90
32660;DHT22;19064;47.912;12.308;2023-02-28T01:25:38;-3.30;99.90
32660;DHT22;19064;47.912;12.308;2023-02-28T01:28:06;-3.30;99.90
32660;DHT22;19064;47.912;12.308;2023-02-28T01:30:34;-3.20;99.90
32660;DHT22;19064;47.912;12.308;2023-02-28T01:33:02;-3.20;99.90
32660;DHT22;19064;47.912;12.308;2023-02-28T01:35:31;-3.20;99.90
32660;DHT22;19064;47.912;12.308;2023-02-28T01:37:59;-3.20;99.90
32660;DHT22;19064;47.912;12.308;2023-02-28T01:40:27;-3.30;99.90
32660;DHT22;19064;47.912;12.308;2023-02-28T01:42:56;-3.30;99.90
32660;DHT22;19064;47.912;12.308;2023-02-28T01:45:25;-3.30;99.90
32660;DHT22;19064;47.912;12.308;2023-02-28T01:47:54;-3.20;99.90
32660;DHT22;19064;47.912;12.308;2023-02-28T01:50:24;-3.20;99.90
32660;DHT22;19064;47.912;12.308;2023-02-28T01:52:52;-3.30;99.90
32660;DHT22;19064;47.912;12.308;2023-02-28T01:55:24;-3.40;99.90
32660;DHT22;19064;47.912;12.308;2023-02-28T01:57:57;-3.50;99.90
32660;DHT22;19064;47.912;12.308;2023-02-28T02:00:26;-3.50;99.90
32660;DHT22;19064;47.912;12.308;2023-02-28T02:02:55;-3.60;99.90
32660;DHT22;19064;47.912;12.308;2023-02-28T02:05:26;-3.60;99.90
32660;DHT22;19064;47.912;12.308;2023-02-28T02:07:55;-3.70;99.90
32660;DHT22;19064;47.912;12.308;2023-02-28T02:10:25;-3.60;99.90
32660;DHT22;19064;47.912;12.308;2023-02-28T02:13:05;-3.60;99.90
32660;DHT22;19064;47.912;12.308;2023-02-28T02:15:37;-3.70;99.90
32660;DHT22;19064;47.912;12.308;2023-02-28T02:18:12;-3.60;99.90
32660;DHT22;19064;47.912;12.308;2023-02-28T02:21:03;-3.60;99.90
32660;DHT22;19064;47.912;12.308;2023-02-28T02:23:58;-3.50;99.90
32660;DHT22;19064;47.912;12.308;2023-02-28T02:26:41;-3.50;99.90
32660;DHT22;19064;47.912;12.308;2023-02-28T02:32:09;-3.60;99.90
32660;DHT22;19064;47.912;12.308;2023-02-28T02:34:57;-3.60;99.90
32660;DHT22;19064;47.912;12.308;2023-02-28T02:37:27;-3.60;99.90
32660;DHT22;19064;47.912;12.308;2023-02-28T02:39:59;-3.60;99.90
32660;DHT22;19064;47.912;12.308;2023-02-28T02:42:29;-3.60;99.90
32660;DHT22;19064;47.912;12.308;2023-02-28T02:45:00;-3.60;99.90
32660;DHT22;19064;47.912;12.308;2023-02-28T02:47:29;-3.60;99.90
32660;DHT22;19064;47.912;12.308;2023-02-28T02:50:03;-3.60;99.90
32660;DHT22;19064;47.912;12.308;2023-02-28T02:52:32;-3.60;99.90
32660;DHT22;19064;47.912;12.308;2023-02-28T02:55:04;-3.60;99.90
32660;DHT22;19064;47.912;12.308;2023-02-28T02:57:38;-3.70;99.90
32660;DHT22;19064;47.912;12.308;2023-02-28T03:00:09;-3.80;99.90
32660;DHT22;19064;47.912;12.308;2023-02-28T03:02:38;-3.80;99.90
32660;DHT22;19064;47.912;12.308;2023-02-28T03:05:14;-3.80;99.90
32660;DHT22;19064;47.912;12.308;2023-02-28T03:07:44;-3.90;99.90
32660;DHT22;19064;47.912;12.308;2023-02-28T03:13:00;-4.10;99.90
32660;DHT22;19064;47.912;12.308;2023-02-28T03:15:33;-4.00;99.90
32660;DHT22;19064;47.912;12.308;2023-02-28T03:18:06;-4.10;99.90
32660;DHT22;19064;47.912;12.308;2023-02-28T03:20:44;-4.20;99.90
32660;DHT22;19064;47.912;12.308;2023-02-28T03:23:16;-4.20;99.90
32660;DHT22;19064;47.912;12.308;2023-02-28T03:25:51;-4.20;99.90
32660;DHT22;19064;47.912;12.308;2023-02-28T03:28:22;-4.00;99.90
32660;DHT22;19064;47.912;12.308;2023-02-28T03:30:57;-4.00;99.90
32660;DHT22;19064;47.912;12.308;2023-02-28T03:33:26;-3.90;99.90
32660;DHT22;19064;47.912;12.308;2023-02-28T03:35:57;-3.80;99.90
32660;DHT22;19064;47.912;12.308;2023-02-28T03:38:27;-3.70;99.90
32660;DHT22;19064;47.912;12.308;2023-02-28T03:40:57;-3.80;99.90
32660;DHT22;19064;47.912;12.308;2023-02-28T03:43:28;-3.90;99.90
32660;DHT22;19064;47.912;12.308;2023-02-28T03:45:56;-3.90;99.90
32660;DHT22;19064;47.912;12.308;2023-02-28T03:48:30;-3.80;99.90
32660;DHT22;19064;47.912;12.308;2023-02-28T03:51:00;-3.80;99.90
32660;DHT22;19064;47.912;12.308;2023-02-28T03:53:29;-3.90;99.90
32660;DHT22;19064;47.912;12.308;2023-02-28T03:55:59;-3.90;99.90
32660;DHT22;19064;47.912;12.308;2023-02-28T03:58:30;-3.80;99.90
32660;DHT22;19064;47.912;12.308;2023-02-28T04:00:59;-3.80;99.90
32660;DHT22;19064;47.912;12.308;2023-02-28T04:03:35;-3.80;99.90
32660;DHT22;19064;47.912;12.308;2023-02-28T04:06:05;-3.80;99.90
32660;DHT22;19064;47.912;12.308;2023-02-28T04:08:33;-3.70;99.90
32660;DHT22;19064;47.912;12.308;2023-02-28T04:11:03;-3.70;99.90
32660;DHT22;19064;47.912;12.308;2023-02-28T04:13:32;-3.70;99.90
32660;DHT22;19064;47.912;12.308;2023-02-28T04:16:06;-3.70;99.90
32660;DHT22;19064;47.912;12.308;2023-02-28T04:18:38;-3.70;99.90
32660;DHT22;19064;47.912;12.308;2023-02-28T04:21:07;-3.70;99.90
32660;DHT22;19064;47.912;12.308;2023-02-28T04:23:35;-3.80;99.90
32660;DHT22;19064;47.912;12.308;2023-02-28T04:26:03;-3.80;99.90
32660;DHT22;19064;47.912;12.308;2023-02-28T04:28:32;-3.80;99.90
32660;DHT22;19064;47.912;12.308;2023-02-28T04:31:01;-3.80;99.90
32660;DHT22;19064;47.912;12.308;2023-02-28T04:33:30;-3.80;99.90
32660;DHT22;19064;47.912;12.308;2023-02-28T04:36:01;-3.80;99.90
32660;DHT22;19064;47.912;12.308;2023-02-28T04:38:31;-3.90;99.90
32660;DHT22;19064;47.912;12.308;2023-02-28T04:40:59;-3.80;99.90
32660;DHT22;19064;47.912;12.308;2023-02-28T04:43:27;-3.80;99.90
32660;DHT22;19064;47.912;12.308;2023-02-28T04:45:56;-3.80;99.90
32660;DHT22;19064;47.912;12.308;2023-02-28T04:48:24;-3.80;99.90
32660;DHT22;19064;47.912;12.308;2023-02-28T04:50:52;-3.80;99.90
32660;DHT22;19064;47.912;12.308;2023-02-28T04:53:20;-3.90;99.90
32660;DHT22;19064;47.912;12.308;2023-02-28T04:55:49;-3.90;99.90
32660;DHT22;19064;47.912;12.308;2023-02-28T04:58:17;-3.90;99.90
32660;DHT22;19064;47.912;12.308;2023-02-28T05:00:45;-3.90;99.90
32660;DHT22;19064;47.912;12.308;2023-02-28T05:03:13;-4.00;99.90
32660;DHT22;19064;47.912;12.308;2023-02-28T05:05:41;-3.90;99.90
32660;DHT22;19064;47.912;12.308;2023-02-28T05:08:09;-3.90;99.90
32660;DHT22;19064;47.912;12.308;2023-02-28T05:10:37;-3.90;99.90
32660;DHT22;19064;47.912;12.308;2023-02-28T05:13:06;-4.00;99.90
32660;DHT22;19064;47.912;12.308;2023-02-28T05:15:36;-4.00;99.90
32660;DHT22;19064;47.912;12.308;2023-02-28T05:18:04;-4.00;99.90
32660;DHT22;19064;47.912;12.308;2023-02-28T05:20:31;-4.00;99.90
32660;DHT22;19064;47.912;12.308;2023-02-28T05:22:59;-4.00;99.90
32660;DHT22;19064;47.912;12.308;2023-02-28T05:25:30;-3.90;99.90
32660;DHT22;19064;47.912;12.308;2023-02-28T05:27:56;-3.90;99.90
32660;DHT22;19064;47.912;12.308;2023-02-28T05:30:26;-4.00;99.90
32660;DHT22;19064;47.912;12.308;2023-02-28T05:32:53;-3.90;99.90
32660;DHT22;19064;47.912;12.308;2023-02-28T05:35:21;-4.00;99.90
32660;DHT22;19064;47.912;12.308;2023-02-28T05:37:49;-4.00;99.90
32660;DHT22;19064;47.912;12.308;2023-02-28T05:40:19;-4.00;99.90
32660;DHT22;19064;47.912;12.308;2023-02-28T05:42:48;-4.00;99.90
32660;DHT22;19064;47.912;12.308;2023-02-28T05:45:17;-4.00;99.90
32660;DHT22;19064;47.912;12.308;2023-02-28T05:47:46;-4.00;99.90
32660;DHT22;19064;47.912;12.308;2023-02-28T05:50:17;-4.00;99.90
32660;DHT22;19064;47.912;12.308;2023-02-28T05:52:48;-3.90;99.90
32660;DHT22;19064;47.912;12.308;2023-02-28T05:55:16;-3.90;99.90
32660;DHT22;19064;47.912;12.308;2023-02-28T05:57:44;-4.00;99.90
32660;DHT22;19064;47.912;12.308;2023-02-28T06:00:15;-4.10;99.90
32660;DHT22;19064;47.912;12.308;2023-02-28T06:02:44;-4.10;99.90
32660;DHT22;19064;47.912;12.308;2023-02-28T06:05:14;-4.10;99.90
32660;DHT22;19064;47.912;12.308;2023-02-28T06:07:42;-4.20;99.90
32660;DHT22;19064;47.912;12.308;2023-02-28T06:10:13;-4.00;99.90
32660;DHT22;19064;47.912;12.308;2023-02-28T06:12:43;-4.10;99.90
32660;DHT22;19064;47.912;12.308;2023-02-28T06:15:14;-4.10;99.90
32660;DHT22;19064;47.912;12.308;2023-02-28T06:17:42;-4.10;99.90
32660;DHT22;19064;47.912;12.308;2023-02-28T06:20:10;-4.10;99.90
32660;DHT22;19064;47.912;12.308;2023-02-28T06:22:40;-4.00;99.90
32660;DHT22;19064;47.912;12.308;2023-02-28T06:25:09;-3.90;99.90
32660;DHT22;19064;47.912;12.308;2023-02-28T06:27:37;-3.80;99.90
32660;DHT22;19064;47.912;12.308;2023-02-28T06:30:05;-3.80;99.90
32660;DHT22;19064;47.912;12.308;2023-02-28T06:32:33;-3.80;99.90
32660;DHT22;19064;47.912;12.308;2023-02-28T06:35:02;-3.80;99.90
32660;DHT22;19064;47.912;12.308;2023-02-28T06:37:30;-3.80;99.90
32660;DHT22;19064;47.912;12.308;2023-02-28T06:39:59;-3.80;99.90
32660;DHT22;19064;47.912;12.308;2023-02-28T06:42:27;-3.70;99.90
32660;DHT22;19064;47.912;12.308;2023-02-28T06:44:57;-3.80;99.90
32660;DHT22;19064;47.912;12.308;2023-02-28T06:47:25;-3.70;99.90
32660;DHT22;19064;47.912;12.308;2023-02-28T06:49:53;-3.70;99.90
32660;DHT22;19064;47.912;12.308;2023-02-28T06:52:21;-3.60;99.90
32660;DHT22;19064;47.912;12.308;2023-02-28T06:54:48;-3.60;99.90
32660;DHT22;19064;47.912;12.308;2023-02-28T06:57:32;-3.60;99.90
32660;DHT22;19064;47.912;12.308;2023-02-28T07:00:01;-3.60;99.90
32660;DHT22;19064;47.912;12.308;2023-02-28T07:02:36;-3.60;99.90
32660;DHT22;19064;47.912;12.308;2023-02-28T07:05:05;-3.40;99.90
32660;DHT22;19064;47.912;12.308;2023-02-28T07:07:33;-3.40;99.90
32660;DHT22;19064;47.912;12.308;2023-02-28T07:10:02;-3.30;99.90
32660;DHT22;19064;47.912;12.308;2023-02-28T07:12:33;-3.20;99.90
32660;DHT22;19064;47.912;12.308;2023-02-28T07:15:04;-3.20;99.90
32660;DHT22;19064;47.912;12.308;2023-02-28T07:17:31;-3.20;99.90
32660;DHT22;19064;47.912;12.308;2023-02-28T07:19:58;-3.10;99.90
32660;DHT22;19064;47.912;12.308;2023-02-28T07:22:26;-3.10;99.90
32660;DHT22;19064;47.912;12.308;2023-02-28T07:24:57;-3.00;99.90
32660;DHT22;19064;47.912;12.308;2023-02-28T07:27:23;-3.00;99.90
32660;DHT22;19064;47.912;12.308;2023-02-28T07:29:52;-2.90;99.90
32660;DHT22;19064;47.912;12.308;2023-02-28T07:32:20;-2.90;99.90
32660;DHT22;19064;47.912;12.308;2023-02-28T07:34:46;-2.80;99.90
32660;DHT22;19064;47.912;12.308;2023-02-28T07:37:14;-2.70;99.90
32660;DHT22;19064;47.912;12.308;2023-02-28T07:39:41;-2.60;99.90
32660;DHT22;19064;47.912;12.308;2023-02-28T07:42:08;-2.70;99.90
32660;DHT22;19064;47.912;12.308;2023-02-28T07:44:39;-2.70;99.90
32660;DHT22;19064;47.912;12.308;2023-02-28T07:47:08;-2.60;99.90
32660;DHT22;19064;47.912;12.308;2023-02-28T07:49:36;-2.60;99.90
32660;DHT22;19064;47.912;12.308;2023-02-28T07:52:04;-2.50;99.90
32660;DHT22;19064;47.912;12.308;2023-02-28T07:54:33;-2.40;99.90
32660;DHT22;19064;47.912;12.308;2023-02-28T07:57:00;-2.40;99.90
32660;DHT22;19064;47.912;12.308;2023-02-28T07:59:26;-2.30;99.90
32660;DHT22;19064;47.912;12.308;2023-02-28T08:01:53;-2.20;99.90
32660;DHT22;19064;47.912;12.308;2023-02-28T08:04:21;-2.10;99.90
32660;DHT22;19064;47.912;12.308;2023-02-28T08:06:49;-2.10;99.90
32660;DHT22;19064;47.912;12.308;2023-02-28T08:09:19;-2.00;99.90
32660;DHT22;19064;47.912;12.308;2023-02-28T08:11:46;-1.90;99.90
32660;DHT22;19064;47.912;12.308;2023-02-28T08:14:17;-1.80;99.90
32660;DHT22;19064;47.912;12.308;2023-02-28T08:16:47;-1.80;99.90
32660;DHT22;19064;47.912;12.308;2023-02-28T08:19:17;-1.70;99.90
32660;DHT22;19064;47.912;12.308;2023-02-28T08:21:46;-1.80;99.90
32660;DHT22;19064;47.912;12.308;2023-02-28T08:24:16;-1.80;99.90
32660;DHT22;19064;47.912;12.308;2023-02-28T08:26:44;-1.80;99.90
32660;DHT22;19064;47.912;12.308;2023-02-28T08:29:12;-1.80;99.90
32660;DHT22;19064;47.912;12.308;2023-02-28T08:31:40;-1.80;99.90
32660;DHT22;19064;47.912;12.308;2023-02-28T08:34:09;-1.80;99.90
32660;DHT22;19064;47.912;12.308;2023-02-28T08:36:36;-1.70;99.90
32660;DHT22;19064;47.912;12.308;2023-02-28T08:39:05;-1.70;99.90
32660;DHT22;19064;47.912;12.308;2023-02-28T08:41:33;-1.60;99.90
32660;DHT22;19064;47.912;12.308;2023-02-28T08:44:01;-1.50;99.90
32660;DHT22;19064;47.912;12.308;2023-02-28T08:46:29;-1.50;99.90
32660;DHT22;19064;47.912;12.308;2023-02-28T08:48:57;-1.60;99.90
32660;DHT22;19064;47.912;12.308;2023-02-28T08:51:28;-1.60;99.90
32660;DHT22;19064;47.912;12.308;2023-02-28T08:53:57;-1.70;99.90
32660;DHT22;19064;47.912;12.308;2023-02-28T08:56:31;-1.70;99.90
32660;DHT22;19064;47.912;12.308;2023-02-28T08:58:58;-1.60;99.90
32660;DHT22;19064;47.912;12.308;2023-02-28T09:01:27;-1.70;99.90
32660;DHT22;19064;47.912;12.308;2023-02-28T09:03:54;-1.60;99.90
32660;DHT22;19064;47.912;12.308;2023-02-28T09:06:22;-1.50;99.90
32660;DHT22;19064;47.912;12.308;2023-02-28T09:08:49;-1.40;99.90
32660;DHT22;19064;47.912;12.308;2023-02-28T09:11:17;-1.40;99.90
32660;DHT22;19064;47.912;12.308;2023-02-28T09:13:45;-1.30;99.90
32660;DHT22;19064;47.912;12.308;2023-02-28T09:16:13;-1.30;99.90
32660;DHT22;19064;47.912;12.308;2023-02-28T09:18:42;-1.30;99.90
32660;DHT22;19064;47.912;12.308;2023-02-28T09:21:11;-1.30;99.90
32660;DHT22;19064;47.912;12.308;2023-02-28T09:23:41;-1.30;99.90
32660;DHT22;19064;47.912;12.308;2023-02-28T09:26:11;-1.20;99.90
32660;DHT22;19064;47.912;12.308;2023-02-28T09:28:39;-1.20;99.90
32660;DHT22;19064;47.912;12.308;2023-02-28T09:31:11;-1.10;99.90
32660;DHT22;19064;47.912;12.308;2023-02-28T09:33:39;-1.30;99.90
32660;DHT22;19064;47.912;12.308;2023-02-28T09:36:07;-1.20;99.90
32660;DHT22;19064;47.912;12.308;2023-02-28T09:38:35;-1.20;99.90
32660;DHT22;19064;47.912;12.308;2023-02-28T09:41:08;-1.10;99.90
32660;DHT22;19064;47.912;12.308;2023-02-28T09:43:40;-1.00;99.90
32660;DHT22;19064;47.912;12.308;2023-02-28T09:46:14;-1.00;99.90
32660;DHT22;19064;47.912;12.308;2023-02-28T09:48:42;-1.00;99.90
32660;DHT22;19064;47.912;12.308;2023-02-28T09:51:13;-0.90;99.90
32660;DHT22;19064;47.912;12.308;2023-02-28T09:53:41;-0.80;99.90
32660;DHT22;19064;47.912;12.308;2023-02-28T09:56:10;-0.70;99.90
32660;DHT22;19064;47.912;12.308;2023-02-28T09:58:40;-0.50;99.90
32660;DHT22;19064;47.912;12.308;2023-02-28T10:01:10;-0.50;99.90
32660;DHT22;19064;47.912;12.308;2023-02-28T10:03:41;-0.30;99.90
32660;DHT22;19064;47.912;12.308;2023-02-28T10:06:12;-0.20;99.90
32660;DHT22;19064;47.912;12.308;2023-02-28T10:08:42;-0.20;99.90
32660;DHT22;19064;47.912;12.308;2023-02-28T10:11:16;-0.20;99.90
32660;DHT22;19064;47.912;12.308;2023-02-28T10:13:48;-0.30;99.90
32660;DHT22;19064;47.912;12.308;2023-02-28T10:16:18;-0.40;99.90
32660;DHT22;19064;47.912;12.308;2023-02-28T10:18:50;-0.40;99.90
32660;DHT22;19064;47.912;12.308;2023-02-28T10:21:24;-0.40;99.90
32660;DHT22;19064;47.912;12.308;2023-02-28T10:23:59;-0.30;99.90
32660;DHT22;19064;47.912;12.308;2023-02-28T10:26:29;-0.20;99.90
32660;DHT22;19064;47.912;12.308;2023-02-28T10:28:59;-0.10;99.90
32660;DHT22;19064;47.912;12.308;2023-02-28T10:31:27;-0.20;99.90
32660;DHT22;19064;47.912;12.308;2023-02-28T10:33:59;-0.20;99.90
32660;DHT22;19064;47.912;12.308;2023-02-28T10:36:28;-0.30;99.90
32660;DHT22;19064;47.912;12.308;2023-02-28T10:38:55;-0.40;99.90
32660;DHT22;19064;47.912;12.308;2023-02-28T10:41:29;-0.40;99.90
32660;DHT22;19064;47.912;12.308;2023-02-28T10:44:14;-0.30;99.90
32660;DHT22;19064;47.912;12.308;2023-02-28T10:46:42;-0.20;99.90
32660;DHT22;19064;47.912;12.308;2023-02-28T10:49:16;-0.10;99.90
32660;DHT22;19064;47.912;12.308;2023-02-28T10:51:45;-0.20;99.90
32660;DHT22;19064;47.912;12.308;2023-02-28T10:54:17;-0.10;99.90
32660;DHT22;19064;47.912;12.308;2023-02-28T10:56:45;0.10;99.90
32660;DHT22;19064;47.912;12.308;2023-02-28T10:59:26;0.10;99.90
32660;DHT22;19064;47.912;12.308;2023-02-28T11:01:56;0.10;99.90
32660;DHT22;19064;47.912;12.308;2023-02-28T11:04:35;0.20;99.90
32660;DHT22;19064;47.912;12.308;2023-02-28T11:07:05;0.20;99.90
32660;DHT22;19064;47.912;12.308;2023-02-28T11:09:34;0.20;99.90
32660;DHT22;19064;47.912;12.308;2023-02-28T11:12:03;0.30;99.90
32660;DHT22;19064;47.912;12.308;2023-02-28T11:14:32;0.30;99.90
32660;DHT22;19064;47.912;12.308;2023-02-28T11:17:02;0.20;99.90
32660;DHT22;19064;47.912;12.308;2023-02-28T11:19:43;0.10;99.90
32660;DHT22;19064;47.912;12.308;2023-02-28T11:22:15;-0.10;99.90
32660;DHT22;19064;47.912;12.308;2023-02-28T11:24:45;-0.20;99.90
32660;DHT22;19064;47.912;12.308;2023-02-28T11:27:24;-0.10;99.90
32660;DHT22;19064;47.912;12.308;2023-02-28T11:29:56;0.00;99.90
32660;DHT22;19064;47.912;12.308;2023-02-28T11:32:24;0.10;99.90
32660;DHT22;19064;47.912;12.308;2023-02-28T11:35:10;0.10;99.90
32660;DHT22;19064;47.912;12.308;2023-02-28T11:37:41;0.10;99.90
32660;DHT22;19064;47.912;12.308;2023-02-28T11:40:12;0.10;99.90
32660;DHT22;19064;47.912;12.308;2023-02-28T11:42:44;0.00;99.90
32660;DHT22;19064;47.912;12.308;2023-02-28T11:45:28;0.00;99.90
32660;DHT22;19064;47.912;12.308;2023-02-28T11:48:01;0.00;99.90
32660;DHT22;19064;47.912;12.308;2023-02-28T11:50:42;0.10;99.90
32660;DHT22;19064;47.912;12.308;2023-02-28T11:53:16;0.20;99.90
32660;DHT22;19064;47.912;12.308;2023-02-28T11:55:48;0.20;99.90
32660;DHT22;19064;47.912;12.308;2023-02-28T11:58:22;0.20;99.90
32660;DHT22;19064;47.912;12.308;2023-02-28T12:00:57;0.30;99.90
32660;DHT22;19064;47.912;12.308;2023-02-28T12:03:32;0.40;99.90
32660;DHT22;19064;47.912;12.308;2023-02-28T12:06:09;0.60;99.90
32660;DHT22;19064;47.912;12.308;2023-02-28T12:08:43;0.80;99.90
32660;DHT22;19064;47.912;12.308;2023-02-28T12:11:12;0.80;99.90
32660;DHT22;19064;47.912;12.308;2023-02-28T12:13:45;0.80;99.90
32660;DHT22;19064;47.912;12.308;2023-02-28T12:16:21;0.70;99.90
32660;DHT22;19064;47.912;12.308;2023-02-28T12:19:15;0.80;99.90
32660;DHT22;19064;47.912;12.308;2023-02-28T12:22:03;0.90;99.90
32660;DHT22;19064;47.912;12.308;2023-02-28T12:24:38;1.00;99.90
32660;DHT22;19064;47.912;12.308;2023-02-28T12:27:10;1.10;99.90
32660;DHT22;19064;47.912;12.308;2023-02-28T12:29:43;1.20;99.90
32660;DHT22;19064;47.912;12.308;2023-02-28T12:32:14;1.20;99.90
32660;DHT22;19064;47.912;12.308;2023-02-28T12:35:06;1.30;99.90
32660;DHT22;19064;47.912;12.308;2023-02-28T12:37:37;1.30;99.90
32660;DHT22;19064;47.912;12.308;2023-02-28T12:40:09;1.30;99.90
32660;DHT22;19064;47.912;12.308;2023-02-28T12:42:39;1.30;99.90
32660;DHT22;19064;47.912;12.308;2023-02-28T12:45:09;1.20;99.90
32660;DHT22;19064;47.912;12.308;2023-02-28T12:47:38;1.30;99.90
32660;DHT22;19064;47.912;12.308;2023-02-28T12:50:08;1.30;99.90
32660;DHT22;19064;47.912;12.308;2023-02-28T12:52:41;1.30;99.90
32660;DHT22;19064;47.912;12.308;2023-02-28T12:55:11;1.40;99.90
32660;DHT22;19064;47.912;12.308;2023-02-28T12:57:43;1.40;99.90
32660;DHT22;19064;47.912;12.308;2023-02-28T13:00:13;1.40;99.90
32660;DHT22;19064;47.912;12.308;2023-02-28T13:05:46;1.40;99.90
32660;DHT22;19064;47.912;12.308;2023-02-28T13:08:44;1.40;99.90
32660;DHT22;19064;47.912;12.308;2023-02-28T13:11:25;1.40;99.90
32660;DHT22;19064;47.912;12.308;2023-02-28T13:13:59;1.50;99.90
32660;DHT22;19064;47.912;12.308;2023-02-28T13:16:26;1.50;99.90
32660;DHT22;19064;47.912;12.308;2023-02-28T13:19:07;1.50;99.90
32660;DHT22;19064;47.912;12.308;2023-02-28T13:21:41;1.50;99.90
32660;DHT22;19064;47.912;12.308;2023-02-28T13:24:11;1.50;99.90
32660;DHT22;19064;47.912;12.308;2023-02-28T13:29:27;1.60;99.90
32660;DHT22;19064;47.912;12.308;2023-02-28T13:34:42;1.50;99.90
32660;DHT22;19064;47.912;12.308;2023-02-28T13:40:26;1.50;99.90
32660;DHT22;19064;47.912;12.308;2023-02-28T13:42:55;1.50;99.90
32660;DHT22;19064;47.912;12.308;2023-02-28T13:45:24;1.40;99.90
32660;DHT22;19064;47.912;12.308;2023-02-28T13:47:53;1.40;99.90
32660;DHT22;19064;47.912;12.308;2023-02-28T13:50:32;1.40;99.90
32660;DHT22;19064;47.912;12.308;2023-02-28T13:55:45;1.50;99.90
32660;DHT22;19064;47.912;12.308;2023-02-28T13:58:25;1.60;99.90
32660;DHT22;19064;47.912;12.308;2023-02-28T14:00:59;1.60;99.90
32660;DHT22;19064;47.912;12.308;2023-02-28T14:03:38;1.60;99.90
32660;DHT22;19064;47.912;12.308;2023-02-28T14:06:16;1.60;99.90
32660;DHT22;19064;47.912;12.308;2023-02-28T14:08:51;1.60;99.90
32660;DHT22;19064;47.912;12.308;2023-02-28T14:11:29;1.60;99.90
32660;DHT22;19064;47.912;12.308;2023-02-28T14:13:57;1.70;99.90
32660;DHT22;19064;47.912;12.308;2023-02-28T14:16:25;1.70;99.90
32660;DHT22;19064;47.912;12.308;2023-02-28T14:18:57;1.70;99.90
32660;DHT22;19064;47.912;12.308;2023-02-28T14:21:26;1.70;99.90
32660;DHT22;19064;47.912;12.308;2023-02-28T14:24:23;1.70;99.90
32660;DHT22;19064;47.912;12.308;2023-02-28T14:32:47;1.80;99.90
32660;DHT22;19064;47.912;12.308;2023-02-28T14:35:27;1.80;99.90
32660;DHT22;19064;47.912;12.308;2023-02-28T14:37:56;1.80;99.90
32660;DHT22;19064;47.912;12.308;2023-02-28T14:40:27;1.80;99.90
32660;DHT22;19064;47.912;12.308;2023-02-28T14:42:56;1.80;99.90
32660;DHT22;19064;47.912;12.308;2023-02-28T14:45:26;1.80;99.90
32660;DHT22;19064;47.912;12.308;2023-02-28T14:47:56;1.90;99.90
32660;DHT22;19064;47.912;12.308;2023-02-28T14:50:26;1.80;99.90
32660;DHT22;19064;47.912;12.308;2023-02-28T14:52:56;1.80;99.90
32660;DHT22;19064;47.912;12.308;2023-02-28T14:55:26;1.80;99.90
32660;DHT22;19064;47.912;12.308;2023-02-28T14:57:56;1.80;99.90
32660;DHT22;19064;47.912;12.308;2023-02-28T15:00:25;1.90;99.90
32660;DHT22;19064;47.912;12.308;2023-02-28T15:02:53;1.90;99.90
32660;DHT22;19064;47.912;12.308;2023-02-28T15:05:37;1.90;99.90
32660;DHT22;19064;47.912;12.308;2023-02-28T15:08:05;1.90;99.90
32660;DHT22;19064;47.912;12.308;2023-02-28T15:10:32;1.90;99.90
32660;DHT22;19064;47.912;12.308;2023-02-28T15:13:01;1.80;99.90
32660;DHT22;19064;47.912;12.308;2023-02-28T15:15:33;1.80;99.90
32660;DHT22;19064;47.912;12.308;2023-02-28T15:18:03;1.80;99.90
32660;DHT22;19064;47.912;12.308;2023-02-28T15:20:33;1.80;99.90
32660;DHT22;19064;47.912;12.308;2023-02-28T15:23:02;1.80;99.90
32660;DHT22;19064;47.912;12.308;2023-02-28T15:25:30;1.80;99.90
32660;DHT22;19064;47.912;12.308;2023-02-28T15:27:58;1.80;99.90
32660;DHT22;19064;47.912;12.308;2023-02-28T15:30:27;1.70;99.90
32660;DHT22;19064;47.912;12.308;2023-02-28T15:33:06;1.80;99.90
32660;DHT22;19064;47.912;12.308;2023-02-28T15:35:40;1.70;99.90
32660;DHT22;19064;47.912;12.308;2023-02-28T15:38:13;1.70;99.90
32660;DHT22;19064;47.912;12.308;2023-02-28T15:40:43;1.70;99.90
32660;DHT22;19064;47.912;12.308;2023-02-28T15:43:15;1.70;99.90
32660;DHT22;19064;47.912;12.308;2023-02-28T15:45:44;1.60;99.90
32660;DHT22;19064;47.912;12.308;2023-02-28T15:48:14;1.60;99.90
32660;DHT22;19064;47.912;12.308;2023-02-28T15:50:42;1.50;99.90
32660;DHT22;19064;47.912;12.308;2023-02-28T15:53:14;1.40;99.90
32660;DHT22;19064;47.912;12.308;2023-02-28T15:55:43;1.50;99.90
32660;DHT22;19064;47.912;12.308;2023-02-28T15:58:11;1.40;99.90
32660;DHT22;19064;47.912;12.308;2023-02-28T16:00:40;1.40;99.90
32660;DHT22;19064;47.912;12.308;2023-02-28T16:03:25;1.30;99.90
32660;DHT22;19064;47.912;12.308;2023-02-28T16:08:41;1.30;99.90
32660;DHT22;19064;47.912;12.308;2023-02-28T16:11:12;1.40;99.90